Chemical Marketer — 9HA2018 — position and weather

sailwx.info

Track history (hours):
 
Tides and Currents Weather Stations Pressure Air Temp Water Temp Dewpoint Dewpoint Depression Visibility Wind Speed Wind Dir Waves Ship Positions

Chemical Marketer

Last reported at 2017-Nov-17 07:48 UTC. Time now 2017-Nov-19 16:03 UTC.
Position N 32°52' E 034°58'.

Length 134 m; draft 6.2 m.

Type: Tanker. MMSI: 249814000.

Date/timePositionNaut miles runAvg speedWind from/ knotsBaromVisibWave heightAir tempDewpointWater temp
2017-Nov-17 07:48N 32°52' E 034°58'2 4.7
2017-Nov-17 07:19N 32°53' E 034°56'8211.8
2017-Nov-17 00:25N 33°11' E 033°21'4712.7
2017-Nov-16 20:43N 33°32' E 032°31'1513.0
2017-Nov-16 19:34N 33°39' E 032°15'38213.5
2017-Nov-15 15:15N 37°23' E 025°55'314.0
2017-Nov-15 15:01N 37°26' E 025°53'713.6
2017-Nov-15 14:29N 37°33' E 025°50'713.5
2017-Nov-15 14:00N 37°39' E 025°46'713.7
2017-Nov-15 13:31N 37°45' E 025°42'713.9
2017-Nov-15 13:01N 37°51' E 025°39'11713.0
2017-Nov-15 03:59N 39°48' E 025°44'158 6.3
2017-Nov-14 03:05N 40°54' E 028°52'1 7.1
2017-Nov-14 02:59N 40°54' E 028°52'4 8.9
2017-Nov-14 02:30N 40°51' E 028°57'5 9.5
2017-Nov-14 01:58N 40°49' E 029°03'511.1
2017-Nov-14 01:30N 40°47' E 029°10'510.8
2017-Nov-14 01:00N 40°46' E 029°17'510.4
2017-Nov-14 00:30N 40°45' E 029°23'  
2017-Nov-07 11:45N 36°21' E 014°48'714.7
2017-Nov-07 11:18N 36°21' E 014°40'414.9
2017-Nov-07 11:00N 36°22' E 014°34'714.6
2017-Nov-07 10:30N 36°22' E 014°25'714.3
2017-Nov-07 10:00N 36°23' E 014°17'714.1
2017-Nov-07 09:30N 36°25' E 014°08'814.4
2017-Nov-07 08:58N 36°27' E 013°59'714.4
2017-Nov-07 08:29N 36°29' E 013°51'  
Track history (hours):
 
Tides and Currents Weather Stations Pressure Air Temp Water Temp Dewpoint Dewpoint Depression Visibility Wind Speed Wind Dir Waves Ship Positions

Chemical Marketer

Last reported at 2017-Nov-17 07:48 UTC. Time now 2017-Nov-19 16:03 UTC.
Position N 32°52' E 034°58'.

Length 134 m; draft 6.2 m.

Type: Tanker. MMSI: 249814000.

Date/timePositionNaut miles runAvg speedWind from/ knotsBaromVisibWave heightAir tempDewpointWater temp
2017-Nov-17 07:48N 32°52' E 034°58'2 4.7
2017-Nov-17 07:19N 32°53' E 034°56'8211.8
2017-Nov-17 00:25N 33°11' E 033°21'4712.7
2017-Nov-16 20:43N 33°32' E 032°31'1513.0
2017-Nov-16 19:34N 33°39' E 032°15'38213.5
2017-Nov-15 15:15N 37°23' E 025°55'314.0
2017-Nov-15 15:01N 37°26' E 025°53'713.6
2017-Nov-15 14:29N 37°33' E 025°50'713.5
2017-Nov-15 14:00N 37°39' E 025°46'713.7
2017-Nov-15 13:31N 37°45' E 025°42'713.9
2017-Nov-15 13:01N 37°51' E 025°39'11713.0
2017-Nov-15 03:59N 39°48' E 025°44'158 6.3
2017-Nov-14 03:05N 40°54' E 028°52'1 7.1
2017-Nov-14 02:59N 40°54' E 028°52'4 8.9
2017-Nov-14 02:30N 40°51' E 028°57'5 9.5
2017-Nov-14 01:58N 40°49' E 029°03'511.1
2017-Nov-14 01:30N 40°47' E 029°10'510.8
2017-Nov-14 01:00N 40°46' E 029°17'510.4
2017-Nov-14 00:30N 40°45' E 029°23'  
2017-Nov-07 11:45N 36°21' E 014°48'714.7
2017-Nov-07 11:18N 36°21' E 014°40'414.9
2017-Nov-07 11:00N 36°22' E 014°34'714.6
2017-Nov-07 10:30N 36°22' E 014°25'714.3
2017-Nov-07 10:00N 36°23' E 014°17'714.1
2017-Nov-07 09:30N 36°25' E 014°08'814.4
2017-Nov-07 08:58N 36°27' E 013°59'714.4
2017-Nov-07 08:29N 36°29' E 013°51'  

Dump ship's entire track history